»·PEaware :: DAL495 KLAS-KSLC

DAL495 :: KLAS-KSLC

FLIGHT INFORMATION

Flight Status: Arrived
Operator:
Delta Air Lines
More flights by this operator :: More flights under this callsign
Pilot: Brian A. (9771)
Aircraft: AIRBUS A320
(A320)
More flights by this aircraft type
Origin: KLAS McCarran Intl
United States
Destination: KSLC Salt Lake City Intl
United States
More flights between these airports :: More routes between these airports
Route: STAAV8 MLF QWENN5
File this flight plan on PilotEdge
Remarks:
Altitude:
(Current/Filed)
310ft
Speed:
(Current/Filed)
425kts
Departed: 29-Apr-18 02:03 PM
Arrived: 29-Apr-18 02:51 PM
Distance/Time
Traveled:
319nm/0:48
Distance/Time
To Go:
Arrived

Flight Plot

Page will automatically refresh every two minutes.

Flight plan parsing failed; only flown route is shown


Map Options




Map Legend


Flown Route
Filed Route
Departure Airport
Arrival Airport
Navaid (VOR, NDB)
Fix

Horizontal Profiles

Position Reports

Time Latitude Longitude Heading Altitude Ground
Speed
29-Apr-18 13:18 36.086281 -115.153628 101 2129ft 0kts
29-Apr-18 13:19 36.086281 -115.153628 101 2129ft 0kts
29-Apr-18 13:20 36.086281 -115.153628 101 2129ft 0kts
29-Apr-18 13:21 36.086281 -115.153628 101 2129ft 0kts
29-Apr-18 13:22 36.086281 -115.153628 101 2129ft 0kts
29-Apr-18 13:23 36.086281 -115.153628 101 2129ft 0kts
29-Apr-18 13:24 36.086281 -115.153628 101 2129ft 0kts
29-Apr-18 13:25 36.086281 -115.153628 101 2129ft 0kts
29-Apr-18 13:26 36.086281 -115.153628 101 2129ft 0kts
29-Apr-18 13:27 36.086281 -115.153628 101 2129ft 0kts
29-Apr-18 13:28 36.086281 -115.153628 101 2129ft 0kts
29-Apr-18 13:29 36.086281 -115.153628 101 2129ft 0kts
29-Apr-18 13:30 36.086281 -115.153628 101 2129ft 0kts
29-Apr-18 13:31 36.086281 -115.153628 101 2129ft 0kts
29-Apr-18 13:32 36.086281 -115.153628 101 2129ft 0kts
29-Apr-18 13:33 36.086388 -115.154238 101 2129ft 2kts
29-Apr-18 13:34 36.086477 -115.154747 101 2129ft 0kts
29-Apr-18 13:35 36.086477 -115.154747 101 2129ft 0kts
29-Apr-18 13:36 36.086477 -115.154746 101 2129ft 0kts
29-Apr-18 13:37 36.086477 -115.154746 101 2129ft 0kts
29-Apr-18 13:38 36.086477 -115.154745 101 2129ft 0kts
29-Apr-18 13:39 36.086477 -115.154745 101 2129ft 0kts
29-Apr-18 13:40 36.086439 -115.154522 101 2129ft 1kts
29-Apr-18 13:41 36.086406 -115.154333 101 2129ft 2kts
29-Apr-18 13:42 36.086569 -115.155314 101 2129ft 2kts
29-Apr-18 13:50 36.085803 -115.154999 229 2129ft 0kts
29-Apr-18 13:51 36.085800 -115.155003 229 2129ft 0kts
29-Apr-18 13:52 36.084796 -115.156480 226 2129ft 18kts
29-Apr-18 13:53 36.080993 -115.154647 155 2129ft 16kts
29-Apr-18 13:54 36.077896 -115.151716 94 2129ft 12kts
29-Apr-18 13:55 36.077635 -115.147423 95 2129ft 13kts
29-Apr-18 13:56 36.077494 -115.141774 89 2129ft 21kts
29-Apr-18 13:57 36.077524 -115.132593 91 2129ft 30kts
29-Apr-18 13:58 36.077463 -115.122517 86 2129ft 10kts
29-Apr-18 13:59 36.077176 -115.121313 176 2129ft 0kts
29-Apr-18 14:00 36.077171 -115.121312 176 2129ft 0kts
29-Apr-18 14:01 36.076601 -115.121296 188 2129ft 11kts
29-Apr-18 14:02 36.076664 -115.157973 269 2875ft 188kts
29-Apr-18 14:03 36.076545 -115.223119 265 6234ft 186kts
29-Apr-18 14:04 36.096485 -115.288022 339 7740ft 258kts
29-Apr-18 14:05 36.164024 -115.276549 48 10759ft 270kts
29-Apr-18 14:06 36.195144 -115.182672 81 12342ft 336kts
29-Apr-18 14:07 36.197367 -115.055047 91 13411ft 404kts
29-Apr-18 14:08 36.199089 -114.909513 90 15172ft 432kts
29-Apr-18 14:09 36.226750 -114.763860 52 17059ft 452kts
29-Apr-18 14:10 36.324648 -114.664216 34 18826ft 464kts
29-Apr-18 14:11 36.428211 -114.564903 34 20468ft 477kts
29-Apr-18 14:12 36.535551 -114.463612 33 21965ft 489kts
29-Apr-18 14:13 36.651329 -114.372708 27 23344ft 498kts
29-Apr-18 14:14 36.770382 -114.280184 27 24591ft 509kts
29-Apr-18 14:15 36.891598 -114.185953 27 25713ft 518kts
29-Apr-18 14:16 37.014850 -114.089521 27 26797ft 525kts
29-Apr-18 14:17 37.138752 -113.992379 27 28126ft 524kts
29-Apr-18 14:18 37.262129 -113.895242 27 29407ft 524kts
29-Apr-18 14:19 37.385344 -113.797803 27 30646ft 523kts
29-Apr-18 14:20 37.508494 -113.700068 27 30815ft 522kts
29-Apr-18 14:21 37.631116 -113.602364 27 30833ft 522kts
29-Apr-18 14:22 37.754138 -113.503860 27 30831ft 523kts
29-Apr-18 14:23 37.876852 -113.405367 27 30896ft 523kts
29-Apr-18 14:24 37.999379 -113.306529 28 30889ft 523kts
29-Apr-18 14:25 38.122536 -113.206828 28 30818ft 525kts
29-Apr-18 14:26 38.245526 -113.106810 28 30807ft 526kts
29-Apr-18 14:27 38.369862 -113.008158 20 30807ft 521kts
29-Apr-18 14:28 38.503041 -112.937565 16 30856ft 519kts
29-Apr-18 14:29 38.636028 -112.865858 17 30863ft 519kts
29-Apr-18 14:30 38.769741 -112.794359 17 30832ft 520kts
29-Apr-18 14:31 38.903101 -112.722436 17 30823ft 520kts
29-Apr-18 14:32 39.036667 -112.650089 17 30804ft 522kts
29-Apr-18 14:33 39.170814 -112.577241 17 30808ft 523kts
29-Apr-18 14:34 39.304463 -112.504237 17 30788ft 520kts
29-Apr-18 14:35 39.437235 -112.427898 19 30815ft 526kts
29-Apr-18 14:36 39.571627 -112.350803 19 30797ft 529kts
29-Apr-18 14:37 39.704488 -112.273895 19 27412ft 531kts
29-Apr-18 14:38 39.840438 -112.194944 20 23017ft 525kts
29-Apr-18 14:39 39.969856 -112.119539 21 19734ft 498kts
29-Apr-18 14:40 40.092033 -112.045708 22 16779ft 470kts
29-Apr-18 14:41 40.207777 -111.975760 23 13995ft 443kts
29-Apr-18 14:42 40.320603 -111.934644 3 11760ft 399kts
29-Apr-18 14:43 40.422598 -111.931972 354 11012ft 336kts
29-Apr-18 14:44 40.508203 -111.941990 353 10474ft 283kts
29-Apr-18 14:45 40.581349 -111.950342 353 9371ft 256kts
29-Apr-18 14:46 40.651531 -111.958255 354 7482ft 242kts
29-Apr-18 14:47 40.715551 -111.966211 352 5489ft 216kts
29-Apr-18 14:49 40.766947 -111.972241 352 4400ft 160kts
29-Apr-18 14:50 40.798531 -111.975899 354 4241ft 47kts
29-Apr-18 14:51 40.799945 -111.978137 176 4241ft 15kts
29-Apr-18 14:52 40.794076 -111.977465 175 4241ft 26kts
29-Apr-18 14:52 40.789720 -111.979348 270 4241ft 21kts
29-Apr-18 14:53 40.789108 -111.981384 180 4241ft 0kts

Navigation Log

Ident Type
Flight plan parsing failed, navigation log unavailable